Terminal Aerodrome Forecast
Issued by NWS Northern Indiana

Home | Current Version | Previous Version | Text Only | Print | Product List | Glossary On
Versions: 1 2 3 4 5 6 7 8 9 10 11 12 13 14 15 16
000
FTUS43 KIWX 281135
TAFFWA
TAF
KFWA 281135Z 2812/2912 13004KT P6SM SCT050
      TEMPO 2812/2813 3SM BR
     FM281600 19007KT P6SM SCT040 BKN200
     FM290100 13004KT P6SM SCT100 OVC200=

USA.gov is the U.S. government's official web portal to all federal, state and local government web resources and services.